EA1DZR-2
43.31.47N 005.40.00W
IN73DM aprs.fi
zuletzt gehoert:
2022-08-15T01:01:53Z
zuerst gehoert:
2021-09-25T09:06:32Z

APRS Gijón/Xixón [IN73EM], 2 Stunde(n), EA1DZR-2 [03:11:03, 0s].
EA1DZR 43.31.48N 005.40.00WIN73EM 0.367km N01:01:58ZMMDVM MMDVM HS Hat 432.1000/432.1000 CC2(3EA1DZR-2)
MMDVM DVMega 431.1000/431.1000 CC1(2EA1DZR-1)
MMDVM DV ADER 434.3500/434.3500 CC1(2EA1DZR-4)
EA1FFA 43.31.53N 005.40.64WIN73DM 0.984km 299°WNW01:01:27ZMMDVM MMDVM HS Hat 438.8000/438.8000 CC1(3EA1FFA-1)
EA1IEJ 43.31.83N 005.40.22WIN73DM 1.061km 343°NNW01:01:57ZMMDVM MMDVM HS Hat 438.8500/438.8500 CC6(3EA1IEJ-1)
MMDVM DMO 222.3400/222.3400 CC1(2EA1IEJ-11)
EA4ACU 43.29.56N 005.38.92WIN73EL 3.483km 156°SSE01:00:34ZMMDVM MMDVM HS Hat 432.7000/432.7000 CC1(3EA4ACU-1)
EB1TK 43.32.22N 005.42.32WIN73DM 3.578km 299°WNW01:10:22ZWind 214°/005kn, Böen bis 008kn, Temp 19.44c, Regen 0.0mm, letzte 24h 0.3mm, seit 0h 0.3mm, Baro 1014.6h, Hum: 0%(3EB1TK-13)
LEEL 43.32.98N 005.41.71WIN73DN 3.904km 324°NW01:00:04ZHelipuerto de El Musel: LEAS 150000Z 29007KT 260V320 9999 OVC025 19/16 Q1013=
EB1GEM 43.30.00N 005.36.07WIN73EM 5.783km 114°ESE01:10:34ZWX3in1Plus2.0 U=13.3V,T=??.?C/??.?F(3EB1GEM-3)
ED1ZAE 43.27.99N 005.40.54WIN73DL 6.145km 187°S01:10:26ZWIDE3-3 ESAS3-3 IN73DL WWW.EA1URG.ORG(3ED1ZAE-3)
ED1ZAS 43.27.52N 005.40.17WIN73DL 6.957km 182°S01:02:06ZRD985 438.2250/430.6250 CC1
EA1IPU 43.26.21N 005.46.62WIN73CK 12.931km 224°SW01:00:53ZMMDVM MMDVM HS Hat 439.8000/439.8000 CC1(3EA1IPU-1)
EA1ABW 43.24.77N 005.47.77WIN73CJ 15.957km 221°SW01:00:32ZMMDVM MMDVM HS Hat 439.8250/439.8250 CC1(3EA1ABW-2)
MMDVM MMDVM HS Hat 439.8250/439.8250 CC1(2EA1ABW-1)
LEGM 43.26.15N 005.49.84WIN73CK 16.283km 234°SW01:00:03ZHelipuerto de La Morgal (123.500MHz): LEAS 150000Z 29007KT 260V320 9999 OVC025 19/16 Q1013=
LEMR 43.25.83N 005.49.60WIN73CK 16.402km 232°SW01:00:04ZAerodromo de la Morgal (123.500MHz): LEAS 150000Z 29007KT 260V320 9999 OVC025 19/16 Q1013=
EA1FHR 43.28.72N 005.26.41WIN73GL 18.860km 105°ESE01:00:50ZMMDVM MMDVM HS Hat 439.1500/439.1500 CC1
EA1HWD 43.28.96N 005.26.30WIN73GL 18.909km 103°ESE01:00:54ZMMDVM MMDVM HS Hat 434.2500/434.2500 CC1
EA1AHA 43.32.72N 005.54.38WIN73BN 19.503km 278°W01:00:55ZWind 270°/004kn, Böen bis 005kn, Temp 20.00c, Regen 0.0mm, letzte 24h 0.0mm, seit 0h 0.0mm, Baro 1013.6h, Hum: 73%(3EA1AHA-13)
LEHU 43.22.63N 005.49.57WIN73CJ 20.569km 219°SW01:00:04ZHelipuerto del HUCA: LEAS 150000Z 29007KT 260V320 9999 OVC025 19/16 Q1013=
ED1ZAY 43.29.47N 005.56.54WIN73AL 22.492km 262°W01:02:04ZRD625 438.3000/430.7000 CC1
ED1ZAU 43.23.04N 005.52.75WIN73BJ 22.975km 228°SW01:02:05ZRD625 438.5000/430.9000 CC1
EA1JAY 43.21.54N 005.51.34WIN73BI 23.644km 220°SW01:00:11ZEA1JAY(3EA1JAY-2)
434.525MHz Nodo TETRA DMO(2EA1JAY-4)
EB1JAJ 43.21.72N 005.51.82WIN73BI 23.808km 222°SW01:01:52ZMMDVM MMDVM HS Dual Hat 438.0250/431.0250 CC1(3EB1JAJ-2)
EA1HJA 43.21.47N 005.52.09WIN73BI 24.391km 222°SW01:06:14Z IN73FL WX3IN1+ 2.0 - V=13.2V,TX TEMP=35.8C(3EA1HJA-2)
EA1HJA@URE.ES(2EA1HJA)
EA1L 43.20.37N 005.51.13WIN73BI 25.147km 217°SW01:10:05Zea1l@ure.es V=13.4V
Wind 085°/000kn, Böen bis 000kn, Temp 17.22c, Regen 0.0mm, letzte 24h 0.0mm, seit 0h 0.0mm, Baro 1010.7h, Hum: 93%(2EA1L-13)
EA1HWX 43.19.28N 005.50.98WIN73BH 26.701km 214°SW01:01:50ZDMO - UHF 439.7250/431.0000 CC11(3EA1HWX-2)
MMDVM DMO 222.3400/222.3400 CC1(2EA1HWX-10)
EA1JBU 43.30.80N 005.16.20WIN73IM 31.979km 91°E01:00:12ZEA1JBU(3EA1JBU-2)
EA1IMW 43.14.36N 005.46.93WIN73CF 32.715km 197°SSW01:01:47ZGRUPO RADIO GALENA (GRG) 430.4500/430.4500 CC1(3EA1IMW-1)
EB1DGC 43.12.60N 005.45.59WIN73CF 35.429km 192°SSW01:00:34ZMMDVM MMDVM HS Hat 433.4500/433.4500 CC1
EA1JBL 43.12.28N 005.47.42WIN73CE 36.587km 196°SSW01:00:33ZMMDVM DVMega 435.3000/435.3000 CC1
EA1HWA 43.12.00N 005.47.40WIN73CE 37.093km 196°SSW01:01:12ZMMDVM MMDVM HS Hat 433.4500/433.4500 CC1
EA1RCG 43.09.45N 005.49.78WIN73CD 42.533km 198°SSW01:00:49ZGRUPO RADIO GALENA (GRG) 430.4500/430.4500 CC1(3EA1RCG-3)
ED1ZAD 43.07.90N 005.38.52WIN73ED 43.353km 177°S01:03:21ZED1ZAD-3 APRS Digi/Igate(3ED1ZAD-3)
EC1KV 43.34.01N 006.16.01WIN63UN 48.629km 276°W01:07:24Z VOLT.=13.7 V - TEMP.=??.? C(3EC1KV-1)

aprs.pl 5.0.011w DL3EL © 2006-2021 [4394621]